Aérodrome :
LOGIN :

S'inscrire | Disclaimer

   EN    FR    IT 

 










Légende :    VFR   VFR Marginal   IFR   IFR Intensif   IFR Très Intensif
Visi : 
Plafond : 
>= 8 km
>= 3000ft
5 à 8 km
1000 à 3000 ft
1500m à 5 km
500 à 1000 ft
800 à 1500m
200 à 500 ft
< 800m
< 200 ft
Symboles :   Orages  Brouillard  Fortes neiges  Fortes précipitations  Vent > 20 kt
SIGMETs :   Divers  Orages  Givrage  Turbulence  Onde Orograph.  Cendres Volcan.







- Altitude de l'aérodrome : 20 ft


EBFN - Koksijde

DERNIER METAR :
  • 292055Z 10007KT 9999 FEW250 07/02 Q1014 BLU

METARs EXPIRÉS :
  • 292025Z 09008KT 9999 FEW250 07/02 Q1014 BLU
  • 291955Z 10007KT 9999 FEW060 SCT250 09/02 Q1014 BLU
  • 291925Z 10009KT 9999 FEW060 SCT250 09/03 Q1014 BLU
  • 291855Z 10008KT 9999 FEW030 SCT060 10/03 Q1014 BLU
  • 291825Z 10008KT 9999 FEW030 SCT060 12/03 Q1014 BLU

TAF TAF EBFN
Valide du 29 à 19h jusqu'au 30 à 07h UTC


291541Z 2919/3007 15010KT 9999 SCT030 BKN050
TEMPO 3002/3006 10008KT 8000 SCT040 SCT250 BY EBWM
Pas de NOTAMs connus pour ce terrain.



MET'MAP, la Météo Aéronautique d'un coup d'oeil ! - Copyright ORBIFLY Décembre 2007 - Disclaimer

ORBIFLY MET'MAP TEAM :

Programmation & Développement : Alexandra Zaïnal
Conception & Développement : Baudouin d'Aumeries
Co-Programmation & Développement : Marc-Olivier Méhu
Soutien technique & logistique : Manuel Goepfert

Contact : metmap@orbifly.com




SOURCES & CREDITS :

   NOAA